KGEG/GEG METAR and TAF weather

Enter ICAO airport designator
Station Type Date Time Source
KGEG METAR 2021/04/18 02:53 UTC NOAA

KGEG 180253Z 25008KT 10SM CLR 17/M03 A3016 RMK AO2 SLP211 T01721033 56009


Station Type Date Time Source
KGEG Decoded METAR 2021/04/18 02:53 UTC NOAA

SPOKANE INTERNATIONAL AIRPORT , WA, United States (KGEG) 47-37N 117-32W 735M
Apr 17, 2021 - 10:53 PM EDT / 2021.04.18 0253 UTC
Wind: from the WSW (250 degrees) at 9 MPH (8 KT):0
Visibility: 10 mile(s):0
Sky conditions: clear
Temperature: 63.0 F (17.2 C)
Dew Point: 26.1 F (-3.3 C)
Relative Humidity: 24%
Pressure (altimeter): 30.16 in. Hg (1021 hPa)
Pressure tendency: 0.03 inches (0.9 hPa) lower than three hours ago
ob: KGEG 180253Z 25008KT 10SM CLR 17/M03 A3016 RMK AO2 SLP211 T01721033 56009
cycle: 3

Station Type Date Time Source
KGEG TAF 2021/04/17 18:40 UTC NOAA

TAF KGEG 171738Z 1718/1818 VRB06KT P6SM SKC

Example: see airport list